sensor_id;sensor_type;location;lat;lon;timestamp;P1;P2;P0
44871;PMS7003;30602;51.060;17.226;2022-08-03T00:01:39;19;16;14
44871;PMS7003;30602;51.060;17.226;2022-08-03T00:05:25;17;16;11
44871;PMS7003;30602;51.060;17.226;2022-08-03T00:08:49;18;14;12
44871;PMS7003;30602;51.060;17.226;2022-08-03T00:13:03;16;15;13
44871;PMS7003;30602;51.060;17.226;2022-08-03T00:16:10;16;13;12
44871;PMS7003;30602;51.060;17.226;2022-08-03T00:19:20;14;13;10
44871;PMS7003;30602;51.060;17.226;2022-08-03T00:23:04;13;12;10
44871;PMS7003;30602;51.060;17.226;2022-08-03T00:26:53;13;13;12
44871;PMS7003;30602;51.060;17.226;2022-08-03T00:30:19;13;12;10
44871;PMS7003;30602;51.060;17.226;2022-08-03T00:33:51;13;12;10
44871;PMS7003;30602;51.060;17.226;2022-08-03T00:37:36;11;11;9
44871;PMS7003;30602;51.060;17.226;2022-08-03T00:40:42;16;16;12
44871;PMS7003;30602;51.060;17.226;2022-08-03T00:43:56;17;15;13
44871;PMS7003;30602;51.060;17.226;2022-08-03T00:47:35;17;15;12
44871;PMS7003;30602;51.060;17.226;2022-08-03T00:50:48;18;15;13
44871;PMS7003;30602;51.060;17.226;2022-08-03T00:54:15;17;16;12
44871;PMS7003;30602;51.060;17.226;2022-08-03T00:57:22;16;16;13
44871;PMS7003;30602;51.060;17.226;2022-08-03T01:00:41;18;14;12
44871;PMS7003;30602;51.060;17.226;2022-08-03T01:03:55;17;13;11
44871;PMS7003;30602;51.060;17.226;2022-08-03T01:22:36;17;16;14
44871;PMS7003;30602;51.060;17.226;2022-08-03T01:33:59;18;14;11
44871;PMS7003;30602;51.060;17.226;2022-08-03T01:37:34;13;12;10
44871;PMS7003;30602;51.060;17.226;2022-08-03T01:41:49;15;13;11
44871;PMS7003;30602;51.060;17.226;2022-08-03T01:45:27;17;15;13
44871;PMS7003;30602;51.060;17.226;2022-08-03T01:49:31;14;13;11
44871;PMS7003;30602;51.060;17.226;2022-08-03T01:53:39;21;16;12
44871;PMS7003;30602;51.060;17.226;2022-08-03T01:57:45;16;13;11
44871;PMS7003;30602;51.060;17.226;2022-08-03T02:01:06;17;16;13
44871;PMS7003;30602;51.060;17.226;2022-08-03T02:04:34;18;16;13
44871;PMS7003;30602;51.060;17.226;2022-08-03T02:08:05;17;15;13
44871;PMS7003;30602;51.060;17.226;2022-08-03T02:11:50;16;15;12
44871;PMS7003;30602;51.060;17.226;2022-08-03T02:15:53;17;15;14
44871;PMS7003;30602;51.060;17.226;2022-08-03T02:19:56;16;16;12
44871;PMS7003;30602;51.060;17.226;2022-08-03T02:23:06;19;18;14
44871;PMS7003;30602;51.060;17.226;2022-08-03T02:30:37;18;16;13
44871;PMS7003;30602;51.060;17.226;2022-08-03T02:34:17;15;15;13
44871;PMS7003;30602;51.060;17.226;2022-08-03T02:37:35;16;16;14
44871;PMS7003;30602;51.060;17.226;2022-08-03T02:41:02;19;17;15
44871;PMS7003;30602;51.060;17.226;2022-08-03T02:44:19;23;22;17
44871;PMS7003;30602;51.060;17.226;2022-08-03T02:48:26;23;19;16
44871;PMS7003;30602;51.060;17.226;2022-08-03T02:51:36;22;21;16
44871;PMS7003;30602;51.060;17.226;2022-08-03T02:54:46;22;19;16
44871;PMS7003;30602;51.060;17.226;2022-08-03T02:58:55;22;20;17
44871;PMS7003;30602;51.060;17.226;2022-08-03T03:02:44;25;24;17
44871;PMS7003;30602;51.060;17.226;2022-08-03T03:06:57;25;22;17
44871;PMS7003;30602;51.060;17.226;2022-08-03T03:10:07;22;22;18
44871;PMS7003;30602;51.060;17.226;2022-08-03T03:13:23;27;23;18
44871;PMS7003;30602;51.060;17.226;2022-08-03T03:16:40;22;22;17
44871;PMS7003;30602;51.060;17.226;2022-08-03T03:20:11;24;20;16
44871;PMS7003;30602;51.060;17.226;2022-08-03T03:23:43;24;22;17
44871;PMS7003;30602;51.060;17.226;2022-08-03T03:27:33;20;20;18
44871;PMS7003;30602;51.060;17.226;2022-08-03T03:30:43;30;25;21
44871;PMS7003;30602;51.060;17.226;2022-08-03T03:37:46;26;23;18
44871;PMS7003;30602;51.060;17.226;2022-08-03T03:41:13;23;22;18
44871;PMS7003;30602;51.060;17.226;2022-08-03T03:44:28;26;24;20
44871;PMS7003;30602;51.060;17.226;2022-08-03T03:47:38;29;27;20
44871;PMS7003;30602;51.060;17.226;2022-08-03T03:51:51;27;24;18
44871;PMS7003;30602;51.060;17.226;2022-08-03T03:55:39;28;26;20
44871;PMS7003;30602;51.060;17.226;2022-08-03T03:59:08;29;27;21
44871;PMS7003;30602;51.060;17.226;2022-08-03T04:02:50;31;28;22
44871;PMS7003;30602;51.060;17.226;2022-08-03T04:07:06;30;29;21
44871;PMS7003;30602;51.060;17.226;2022-08-03T04:14:28;27;27;21
44871;PMS7003;30602;51.060;17.226;2022-08-03T04:18:03;30;27;22
44871;PMS7003;30602;51.060;17.226;2022-08-03T04:21:42;30;28;21
44871;PMS7003;30602;51.060;17.226;2022-08-03T04:25:40;29;27;21
44871;PMS7003;30602;51.060;17.226;2022-08-03T04:29:03;32;31;22
44871;PMS7003;30602;51.060;17.226;2022-08-03T04:32:19;32;29;20
44871;PMS7003;30602;51.060;17.226;2022-08-03T04:35:55;28;26;22
44871;PMS7003;30602;51.060;17.226;2022-08-03T04:39:38;28;26;22
44871;PMS7003;30602;51.060;17.226;2022-08-03T04:43:21;27;26;19
44871;PMS7003;30602;51.060;17.226;2022-08-03T04:50:15;29;24;18
44871;PMS7003;30602;51.060;17.226;2022-08-03T04:53:48;22;21;16
44871;PMS7003;30602;51.060;17.226;2022-08-03T04:56:59;26;23;18
44871;PMS7003;30602;51.060;17.226;2022-08-03T05:00:38;31;25;18
44871;PMS7003;30602;51.060;17.226;2022-08-03T05:04:06;27;24;20
44871;PMS7003;30602;51.060;17.226;2022-08-03T05:07:44;27;25;19
44871;PMS7003;30602;51.060;17.226;2022-08-03T05:10:59;26;24;19
44871;PMS7003;30602;51.060;17.226;2022-08-03T05:14:49;21;20;16
44871;PMS7003;30602;51.060;17.226;2022-08-03T05:18:24;26;22;18
44871;PMS7003;30602;51.060;17.226;2022-08-03T05:21:44;22;21;16
44871;PMS7003;30602;51.060;17.226;2022-08-03T05:25:26;20;19;16
44871;PMS7003;30602;51.060;17.226;2022-08-03T05:28:55;19;18;16
44871;PMS7003;30602;51.060;17.226;2022-08-03T05:32:57;20;20;17
44871;PMS7003;30602;51.060;17.226;2022-08-03T05:36:39;22;20;17
44871;PMS7003;30602;51.060;17.226;2022-08-03T05:40:57;22;20;16
44871;PMS7003;30602;51.060;17.226;2022-08-03T05:44:53;24;20;15
44871;PMS7003;30602;51.060;17.226;2022-08-03T05:48:30;17;17;14
44871;PMS7003;30602;51.060;17.226;2022-08-03T05:52:22;19;18;15
44871;PMS7003;30602;51.060;17.226;2022-08-03T05:56:01;19;16;15
44871;PMS7003;30602;51.060;17.226;2022-08-03T05:59:30;17;17;14
44871;PMS7003;30602;51.060;17.226;2022-08-03T06:03:16;16;16;14
44871;PMS7003;30602;51.060;17.226;2022-08-03T06:06:25;16;16;13
44871;PMS7003;30602;51.060;17.226;2022-08-03T06:09:45;17;13;11
44871;PMS7003;30602;51.060;17.226;2022-08-03T06:14:31;16;14;12
44871;PMS7003;30602;51.060;17.226;2022-08-03T06:18:31;15;13;10
44871;PMS7003;30602;51.060;17.226;2022-08-03T06:22:21;17;14;12
44871;PMS7003;30602;51.060;17.226;2022-08-03T06:26:25;16;15;11
44871;PMS7003;30602;51.060;17.226;2022-08-03T06:29:55;16;14;12
44871;PMS7003;30602;51.060;17.226;2022-08-03T06:33:36;13;13;11
44871;PMS7003;30602;51.060;17.226;2022-08-03T06:37:28;14;12;10
44871;PMS7003;30602;51.060;17.226;2022-08-03T06:41:52;14;14;11
44871;PMS7003;30602;51.060;17.226;2022-08-03T06:45:36;12;11;9
44871;PMS7003;30602;51.060;17.226;2022-08-03T06:49:15;11;11;10
44871;PMS7003;30602;51.060;17.226;2022-08-03T06:52:22;11;10;9
44871;PMS7003;30602;51.060;17.226;2022-08-03T06:55:35;11;11;9
44871;PMS7003;30602;51.060;17.226;2022-08-03T06:59:14;12;10;9
44871;PMS7003;30602;51.060;17.226;2022-08-03T07:03:45;11;9;8
44871;PMS7003;30602;51.060;17.226;2022-08-03T07:07:43;12;11;10
44871;PMS7003;30602;51.060;17.226;2022-08-03T07:10:51;10;9;8
44871;PMS7003;30602;51.060;17.226;2022-08-03T07:13:58;10;10;9
44871;PMS7003;30602;51.060;17.226;2022-08-03T07:17:25;11;11;9
44871;PMS7003;30602;51.060;17.226;2022-08-03T07:21:05;10;10;9
44871;PMS7003;30602;51.060;17.226;2022-08-03T07:24:39;10;9;8
44871;PMS7003;30602;51.060;17.226;2022-08-03T07:28:39;10;9;9
44871;PMS7003;30602;51.060;17.226;2022-08-03T07:32:22;11;10;9
44871;PMS7003;30602;51.060;17.226;2022-08-03T07:35:51;15;9;8
44871;PMS7003;30602;51.060;17.226;2022-08-03T07:38:58;10;10;9
44871;PMS7003;30602;51.060;17.226;2022-08-03T07:43:11;11;9;8
44871;PMS7003;30602;51.060;17.226;2022-08-03T07:47:08;10;9;9
44871;PMS7003;30602;51.060;17.226;2022-08-03T07:50:50;11;9;8
44871;PMS7003;30602;51.060;17.226;2022-08-03T07:54:09;9;9;9
44871;PMS7003;30602;51.060;17.226;2022-08-03T07:57:38;9;9;8
44871;PMS7003;30602;51.060;17.226;2022-08-03T08:01:31;10;10;9
44871;PMS7003;30602;51.060;17.226;2022-08-03T08:05:11;9;9;9
44871;PMS7003;30602;51.060;17.226;2022-08-03T08:08:20;9;9;8
44871;PMS7003;30602;51.060;17.226;2022-08-03T08:11:26;9;9;8
44871;PMS7003;30602;51.060;17.226;2022-08-03T08:14:37;9;9;8
44871;PMS7003;30602;51.060;17.226;2022-08-03T08:17:54;8;8;7
44871;PMS7003;30602;51.060;17.226;2022-08-03T08:21:03;8;8;7
44871;PMS7003;30602;51.060;17.226;2022-08-03T08:24:10;9;8;7
44871;PMS7003;30602;51.060;17.226;2022-08-03T08:27:51;8;7;7
44871;PMS7003;30602;51.060;17.226;2022-08-03T08:31:01;11;7;6
44871;PMS7003;30602;51.060;17.226;2022-08-03T08:35:01;8;8;7
44871;PMS7003;30602;51.060;17.226;2022-08-03T08:38:29;6;6;6
44871;PMS7003;30602;51.060;17.226;2022-08-03T08:43:03;7;7;6
44871;PMS7003;30602;51.060;17.226;2022-08-03T08:46:33;7;7;6
44871;PMS7003;30602;51.060;17.226;2022-08-03T08:50:18;9;9;8
44871;PMS7003;30602;51.060;17.226;2022-08-03T08:54:11;7;7;7
44871;PMS7003;30602;51.060;17.226;2022-08-03T09:01:05;6;6;6
44871;PMS7003;30602;51.060;17.226;2022-08-03T09:04:27;6;6;6
44871;PMS7003;30602;51.060;17.226;2022-08-03T09:08:01;7;7;7
44871;PMS7003;30602;51.060;17.226;2022-08-03T09:20:32;7;7;6
44871;PMS7003;30602;51.060;17.226;2022-08-03T09:23:54;6;6;5
44871;PMS7003;30602;51.060;17.226;2022-08-03T09:31:18;7;7;6
44871;PMS7003;30602;51.060;17.226;2022-08-03T09:35:24;6;6;5
44871;PMS7003;30602;51.060;17.226;2022-08-03T09:42:13;7;7;7
44871;PMS7003;30602;51.060;17.226;2022-08-03T09:46:03;6;6;5
44871;PMS7003;30602;51.060;17.226;2022-08-03T09:49:33;6;6;5
44871;PMS7003;30602;51.060;17.226;2022-08-03T09:53:23;8;7;6
44871;PMS7003;30602;51.060;17.226;2022-08-03T09:56:56;6;6;6
44871;PMS7003;30602;51.060;17.226;2022-08-03T10:04:46;6;6;6
44871;PMS7003;30602;51.060;17.226;2022-08-03T10:08:16;7;6;6
44871;PMS7003;30602;51.060;17.226;2022-08-03T10:11:29;8;7;6
44871;PMS7003;30602;51.060;17.226;2022-08-03T10:14:59;6;6;6
44871;PMS7003;30602;51.060;17.226;2022-08-03T10:18:40;6;6;5
44871;PMS7003;30602;51.060;17.226;2022-08-03T10:21:56;6;6;5
44871;PMS7003;30602;51.060;17.226;2022-08-03T10:25:34;7;6;6
44871;PMS7003;30602;51.060;17.226;2022-08-03T10:29:05;7;6;6
44871;PMS7003;30602;51.060;17.226;2022-08-03T10:32:51;6;6;6
44871;PMS7003;30602;51.060;17.226;2022-08-03T10:36:22;7;6;6
44871;PMS7003;30602;51.060;17.226;2022-08-03T10:39:52;6;6;6
44871;PMS7003;30602;51.060;17.226;2022-08-03T10:43:06;6;6;6
44871;PMS7003;30602;51.060;17.226;2022-08-03T10:46:53;7;6;6
44871;PMS7003;30602;51.060;17.226;2022-08-03T10:50:23;7;6;5
44871;PMS7003;30602;51.060;17.226;2022-08-03T10:53:55;6;6;6
44871;PMS7003;30602;51.060;17.226;2022-08-03T10:57:58;7;7;6
44871;PMS7003;30602;51.060;17.226;2022-08-03T11:01:55;7;7;6
44871;PMS7003;30602;51.060;17.226;2022-08-03T11:12:44;7;6;6
44871;PMS7003;30602;51.060;17.226;2022-08-03T11:16:18;5;5;4
44871;PMS7003;30602;51.060;17.226;2022-08-03T11:30:50;8;8;8
44871;PMS7003;30602;51.060;17.226;2022-08-03T11:34:03;7;6;6
44871;PMS7003;30602;51.060;17.226;2022-08-03T11:37:25;6;5;4
44871;PMS7003;30602;51.060;17.226;2022-08-03T11:40:58;6;6;5
44871;PMS7003;30602;51.060;17.226;2022-08-03T11:51:37;6;6;5
44871;PMS7003;30602;51.060;17.226;2022-08-03T11:54:45;6;6;6
44871;PMS7003;30602;51.060;17.226;2022-08-03T11:58:18;7;6;6
44871;PMS7003;30602;51.060;17.226;2022-08-03T12:02:11;6;6;5
44871;PMS7003;30602;51.060;17.226;2022-08-03T12:09:17;6;6;5
44871;PMS7003;30602;51.060;17.226;2022-08-03T12:12:46;5;5;5
44871;PMS7003;30602;51.060;17.226;2022-08-03T12:16:07;7;6;6
44871;PMS7003;30602;51.060;17.226;2022-08-03T12:19:13;6;6;5
44871;PMS7003;30602;51.060;17.226;2022-08-03T12:22:40;7;6;6
44871;PMS7003;30602;51.060;17.226;2022-08-03T12:26:04;6;6;6
44871;PMS7003;30602;51.060;17.226;2022-08-03T12:29:33;6;6;6
44871;PMS7003;30602;51.060;17.226;2022-08-03T12:32:46;5;5;5
44871;PMS7003;30602;51.060;17.226;2022-08-03T12:36:16;8;5;5
44871;PMS7003;30602;51.060;17.226;2022-08-03T12:39:56;5;5;4
44871;PMS7003;30602;51.060;17.226;2022-08-03T12:43:30;5;5;4
44871;PMS7003;30602;51.060;17.226;2022-08-03T12:47:26;6;6;5
44871;PMS7003;30602;51.060;17.226;2022-08-03T12:51:06;5;5;5
44871;PMS7003;30602;51.060;17.226;2022-08-03T12:55:07;6;6;5
44871;PMS7003;30602;51.060;17.226;2022-08-03T12:58:39;5;5;4
44871;PMS7003;30602;51.060;17.226;2022-08-03T13:02:40;8;5;5
44871;PMS7003;30602;51.060;17.226;2022-08-03T13:06:15;6;6;6
44871;PMS7003;30602;51.060;17.226;2022-08-03T13:09:24;5;5;5
44871;PMS7003;30602;51.060;17.226;2022-08-03T13:12:54;6;6;5
44871;PMS7003;30602;51.060;17.226;2022-08-03T13:16:43;7;7;6
44871;PMS7003;30602;51.060;17.226;2022-08-03T13:19:49;7;6;5
44871;PMS7003;30602;51.060;17.226;2022-08-03T13:23:20;7;5;4
44871;PMS7003;30602;51.060;17.226;2022-08-03T13:26:31;6;6;6
44871;PMS7003;30602;51.060;17.226;2022-08-03T13:30:06;7;7;6
44871;PMS7003;30602;51.060;17.226;2022-08-03T13:33:18;6;6;5
44871;PMS7003;30602;51.060;17.226;2022-08-03T13:36:43;6;6;5
44871;PMS7003;30602;51.060;17.226;2022-08-03T13:40:13;6;5;5
44871;PMS7003;30602;51.060;17.226;2022-08-03T13:44:04;6;6;5
44871;PMS7003;30602;51.060;17.226;2022-08-03T13:47:10;6;5;5
44871;PMS7003;30602;51.060;17.226;2022-08-03T13:50:50;6;6;5
44871;PMS7003;30602;51.060;17.226;2022-08-03T13:53:57;6;6;5
44871;PMS7003;30602;51.060;17.226;2022-08-03T13:57:33;6;6;6
44871;PMS7003;30602;51.060;17.226;2022-08-03T14:01:01;6;6;5
44871;PMS7003;30602;51.060;17.226;2022-08-03T14:04:11;4;4;4
44871;PMS7003;30602;51.060;17.226;2022-08-03T14:07:38;5;5;4
44871;PMS7003;30602;51.060;17.226;2022-08-03T14:11:08;6;6;6
44871;PMS7003;30602;51.060;17.226;2022-08-03T14:14:49;6;5;5
44871;PMS7003;30602;51.060;17.226;2022-08-03T14:18:35;5;5;5
44871;PMS7003;30602;51.060;17.226;2022-08-03T14:25:49;6;6;6
44871;PMS7003;30602;51.060;17.226;2022-08-03T14:29:18;7;7;6
44871;PMS7003;30602;51.060;17.226;2022-08-03T14:32:59;4;4;4
44871;PMS7003;30602;51.060;17.226;2022-08-03T14:36:27;4;4;4
44871;PMS7003;30602;51.060;17.226;2022-08-03T14:39:48;5;5;5
44871;PMS7003;30602;51.060;17.226;2022-08-03T14:42:57;6;5;5
44871;PMS7003;30602;51.060;17.226;2022-08-03T14:46:29;6;6;5
44871;PMS7003;30602;51.060;17.226;2022-08-03T14:49:51;7;5;5
44871;PMS7003;30602;51.060;17.226;2022-08-03T14:53:18;5;5;5
44871;PMS7003;30602;51.060;17.226;2022-08-03T14:57:09;5;5;4
44871;PMS7003;30602;51.060;17.226;2022-08-03T15:00:26;6;5;5
44871;PMS7003;30602;51.060;17.226;2022-08-03T15:04:27;4;4;4
44871;PMS7003;30602;51.060;17.226;2022-08-03T15:08:18;5;5;5
44871;PMS7003;30602;51.060;17.226;2022-08-03T15:11:50;6;6;6
44871;PMS7003;30602;51.060;17.226;2022-08-03T15:15:00;7;6;5
44871;PMS7003;30602;51.060;17.226;2022-08-03T15:19:00;6;5;5
44871;PMS7003;30602;51.060;17.226;2022-08-03T15:26:06;6;6;5
44871;PMS7003;30602;51.060;17.226;2022-08-03T15:29:33;6;6;6
44871;PMS7003;30602;51.060;17.226;2022-08-03T15:32:43;5;5;4
44871;PMS7003;30602;51.060;17.226;2022-08-03T15:36:36;6;6;6
44871;PMS7003;30602;51.060;17.226;2022-08-03T15:40:53;6;6;6
44871;PMS7003;30602;51.060;17.226;2022-08-03T15:45:10;6;6;5
44871;PMS7003;30602;51.060;17.226;2022-08-03T15:48:32;6;6;5
44871;PMS7003;30602;51.060;17.226;2022-08-03T15:51:40;5;5;5
44871;PMS7003;30602;51.060;17.226;2022-08-03T15:55:13;7;7;7
44871;PMS7003;30602;51.060;17.226;2022-08-03T15:58:26;6;6;5
44871;PMS7003;30602;51.060;17.226;2022-08-03T16:01:54;7;6;6
44871;PMS7003;30602;51.060;17.226;2022-08-03T16:05:03;7;6;6
44871;PMS7003;30602;51.060;17.226;2022-08-03T16:16:11;6;6;5
44871;PMS7003;30602;51.060;17.226;2022-08-03T16:19:50;8;6;6
44871;PMS7003;30602;51.060;17.226;2022-08-03T16:23:34;7;7;6
44871;PMS7003;30602;51.060;17.226;2022-08-03T16:26:58;6;6;5
44871;PMS7003;30602;51.060;17.226;2022-08-03T16:30:10;5;5;5
44871;PMS7003;30602;51.060;17.226;2022-08-03T16:33:21;7;5;5
44871;PMS7003;30602;51.060;17.226;2022-08-03T16:36:51;6;6;5
44871;PMS7003;30602;51.060;17.226;2022-08-03T16:40:41;5;5;5
44871;PMS7003;30602;51.060;17.226;2022-08-03T16:44:13;5;5;5
44871;PMS7003;30602;51.060;17.226;2022-08-03T16:48:23;6;6;5
44871;PMS7003;30602;51.060;17.226;2022-08-03T16:51:31;5;5;5
44871;PMS7003;30602;51.060;17.226;2022-08-03T16:55:25;7;6;5
44871;PMS7003;30602;51.060;17.226;2022-08-03T16:59:05;6;5;5
44871;PMS7003;30602;51.060;17.226;2022-08-03T17:06:50;7;7;6
44871;PMS7003;30602;51.060;17.226;2022-08-03T17:10:00;8;8;7
44871;PMS7003;30602;51.060;17.226;2022-08-03T17:13:27;9;8;7
44871;PMS7003;30602;51.060;17.226;2022-08-03T17:17:00;7;7;7
44871;PMS7003;30602;51.060;17.226;2022-08-03T17:20:57;8;8;8
44871;PMS7003;30602;51.060;17.226;2022-08-03T17:24:35;9;9;7
44871;PMS7003;30602;51.060;17.226;2022-08-03T17:28:20;11;10;9
44871;PMS7003;30602;51.060;17.226;2022-08-03T17:31:46;8;8;7
44871;PMS7003;30602;51.060;17.226;2022-08-03T17:35:33;10;10;9
44871;PMS7003;30602;51.060;17.226;2022-08-03T17:38:40;9;8;7
44871;PMS7003;30602;51.060;17.226;2022-08-03T17:42:21;9;9;8
44871;PMS7003;30602;51.060;17.226;2022-08-03T17:45:32;8;8;7
44871;PMS7003;30602;51.060;17.226;2022-08-03T17:48:40;11;8;8
44871;PMS7003;30602;51.060;17.226;2022-08-03T17:55:26;11;10;9
44871;PMS7003;30602;51.060;17.226;2022-08-03T17:58:53;17;16;13
44871;PMS7003;30602;51.060;17.226;2022-08-03T18:02:17;16;16;14
44871;PMS7003;30602;51.060;17.226;2022-08-03T18:06:34;17;17;15
44871;PMS7003;30602;51.060;17.226;2022-08-03T18:09:49;13;13;11
44871;PMS7003;30602;51.060;17.226;2022-08-03T18:13:28;12;11;10
44871;PMS7003;30602;51.060;17.226;2022-08-03T18:16:50;11;10;10
44871;PMS7003;30602;51.060;17.226;2022-08-03T18:20:42;12;12;10
44871;PMS7003;30602;51.060;17.226;2022-08-03T18:24:22;13;11;10
44871;PMS7003;30602;51.060;17.226;2022-08-03T18:27:30;11;11;9
44871;PMS7003;30602;51.060;17.226;2022-08-03T18:30:41;12;11;10
44871;PMS7003;30602;51.060;17.226;2022-08-03T18:33:48;14;14;12
44871;PMS7003;30602;51.060;17.226;2022-08-03T18:36:55;12;12;11
44871;PMS7003;30602;51.060;17.226;2022-08-03T18:40:24;14;13;12
44871;PMS7003;30602;51.060;17.226;2022-08-03T18:44:06;15;14;12
44871;PMS7003;30602;51.060;17.226;2022-08-03T18:52:04;16;14;12
44871;PMS7003;30602;51.060;17.226;2022-08-03T18:59:45;14;13;12
44871;PMS7003;30602;51.060;17.226;2022-08-03T19:03:23;13;11;10
44871;PMS7003;30602;51.060;17.226;2022-08-03T19:07:30;13;13;12
44871;PMS7003;30602;51.060;17.226;2022-08-03T19:10:40;15;14;12
44871;PMS7003;30602;51.060;17.226;2022-08-03T19:14:21;17;17;13
44871;PMS7003;30602;51.060;17.226;2022-08-03T19:17:43;15;15;12
44871;PMS7003;30602;51.060;17.226;2022-08-03T19:21:14;16;14;12
44871;PMS7003;30602;51.060;17.226;2022-08-03T19:24:55;18;16;14
44871;PMS7003;30602;51.060;17.226;2022-08-03T19:28:27;18;17;13
44871;PMS7003;30602;51.060;17.226;2022-08-03T19:31:40;18;17;15
44871;PMS7003;30602;51.060;17.226;2022-08-03T19:34:51;18;16;14
44871;PMS7003;30602;51.060;17.226;2022-08-03T19:38:44;16;16;14
44871;PMS7003;30602;51.060;17.226;2022-08-03T19:46:55;16;16;14
44871;PMS7003;30602;51.060;17.226;2022-08-03T19:50:34;21;18;15
44871;PMS7003;30602;51.060;17.226;2022-08-03T19:54:19;15;15;14
44871;PMS7003;30602;51.060;17.226;2022-08-03T19:57:28;17;17;15
44871;PMS7003;30602;51.060;17.226;2022-08-03T20:00:51;18;17;14
44871;PMS7003;30602;51.060;17.226;2022-08-03T20:03:59;16;16;14
44871;PMS7003;30602;51.060;17.226;2022-08-03T20:07:05;18;17;16
44871;PMS7003;30602;51.060;17.226;2022-08-03T20:10:12;18;17;15
44871;PMS7003;30602;51.060;17.226;2022-08-03T20:13:22;20;18;16
44871;PMS7003;30602;51.060;17.226;2022-08-03T20:17:02;23;20;17
44871;PMS7003;30602;51.060;17.226;2022-08-03T20:20:30;18;17;15
44871;PMS7003;30602;51.060;17.226;2022-08-03T20:28:25;20;18;15
44871;PMS7003;30602;51.060;17.226;2022-08-03T20:31:45;19;16;14
44871;PMS7003;30602;51.060;17.226;2022-08-03T20:34:56;17;16;14
44871;PMS7003;30602;51.060;17.226;2022-08-03T20:38:06;21;18;16
44871;PMS7003;30602;51.060;17.226;2022-08-03T20:41:16;20;18;15
44871;PMS7003;30602;51.060;17.226;2022-08-03T20:44:30;20;20;16
44871;PMS7003;30602;51.060;17.226;2022-08-03T20:48:00;19;16;15
44871;PMS7003;30602;51.060;17.226;2022-08-03T20:51:31;18;16;14
44871;PMS7003;30602;51.060;17.226;2022-08-03T20:55:42;19;18;14
44871;PMS7003;30602;51.060;17.226;2022-08-03T20:58:54;18;16;14
44871;PMS7003;30602;51.060;17.226;2022-08-03T21:02:03;21;21;15
44871;PMS7003;30602;51.060;17.226;2022-08-03T21:05:14;16;16;15
44871;PMS7003;30602;51.060;17.226;2022-08-03T21:08:59;20;20;16
44871;PMS7003;30602;51.060;17.226;2022-08-03T21:12:11;22;21;16
44871;PMS7003;30602;51.060;17.226;2022-08-03T21:15:57;19;18;15
44871;PMS7003;30602;51.060;17.226;2022-08-03T21:20:01;20;17;14
44871;PMS7003;30602;51.060;17.226;2022-08-03T21:23:32;20;18;16
44871;PMS7003;30602;51.060;17.226;2022-08-03T21:27:05;21;19;16
44871;PMS7003;30602;51.060;17.226;2022-08-03T21:31:01;19;19;15
44871;PMS7003;30602;51.060;17.226;2022-08-03T21:34:09;17;16;15
44871;PMS7003;30602;51.060;17.226;2022-08-03T21:37:28;18;17;14
44871;PMS7003;30602;51.060;17.226;2022-08-03T21:40:35;21;19;15
44871;PMS7003;30602;51.060;17.226;2022-08-03T21:44:18;19;19;16
44871;PMS7003;30602;51.060;17.226;2022-08-03T21:47:59;21;18;16
44871;PMS7003;30602;51.060;17.226;2022-08-03T21:51:41;20;20;17
44871;PMS7003;30602;51.060;17.226;2022-08-03T21:54:51;20;20;17
44871;PMS7003;30602;51.060;17.226;2022-08-03T21:58:28;18;17;14
44871;PMS7003;30602;51.060;17.226;2022-08-03T22:02:13;20;18;16
44871;PMS7003;30602;51.060;17.226;2022-08-03T22:05:42;17;16;14
44871;PMS7003;30602;51.060;17.226;2022-08-03T22:08:52;17;17;14
44871;PMS7003;30602;51.060;17.226;2022-08-03T22:12:54;20;18;16
44871;PMS7003;30602;51.060;17.226;2022-08-03T22:16:47;18;17;15
44871;PMS7003;30602;51.060;17.226;2022-08-03T22:20:50;23;21;18
44871;PMS7003;30602;51.060;17.226;2022-08-03T22:24:33;23;20;16
44871;PMS7003;30602;51.060;17.226;2022-08-03T22:28:10;21;17;15
44871;PMS7003;30602;51.060;17.226;2022-08-03T22:31:43;19;19;15
44871;PMS7003;30602;51.060;17.226;2022-08-03T22:35:13;21;21;18
44871;PMS7003;30602;51.060;17.226;2022-08-03T22:38:47;21;20;16
44871;PMS7003;30602;51.060;17.226;2022-08-03T22:42:24;22;20;16
44871;PMS7003;30602;51.060;17.226;2022-08-03T22:45:49;22;20;18
44871;PMS7003;30602;51.060;17.226;2022-08-03T22:49:17;22;20;17
44871;PMS7003;30602;51.060;17.226;2022-08-03T22:52:32;24;23;17
44871;PMS7003;30602;51.060;17.226;2022-08-03T22:55:44;23;22;17
44871;PMS7003;30602;51.060;17.226;2022-08-03T22:58:58;21;20;16
44871;PMS7003;30602;51.060;17.226;2022-08-03T23:05:40;23;21;18
44871;PMS7003;30602;51.060;17.226;2022-08-03T23:09:18;22;22;17
44871;PMS7003;30602;51.060;17.226;2022-08-03T23:13:02;21;20;18
44871;PMS7003;30602;51.060;17.226;2022-08-03T23:16:52;23;21;18
44871;PMS7003;30602;51.060;17.226;2022-08-03T23:20:07;24;23;18
44871;PMS7003;30602;51.060;17.226;2022-08-03T23:23:15;28;23;17
44871;PMS7003;30602;51.060;17.226;2022-08-03T23:26:37;27;22;18
44871;PMS7003;30602;51.060;17.226;2022-08-03T23:30:11;24;23;18
44871;PMS7003;30602;51.060;17.226;2022-08-03T23:34:04;26;23;18
44871;PMS7003;30602;51.060;17.226;2022-08-03T23:37:53;26;25;19
44871;PMS7003;30602;51.060;17.226;2022-08-03T23:41:07;24;22;19
44871;PMS7003;30602;51.060;17.226;2022-08-03T23:44:42;27;23;18
44871;PMS7003;30602;51.060;17.226;2022-08-03T23:48:27;25;23;18
